createdAt,value
2017-05-05T00:00:06.850Z,0
2017-05-05T00:00:47.423Z,0
2017-05-05T00:01:28.025Z,0
2017-05-05T00:02:08.653Z,0
2017-05-05T00:02:49.297Z,0
2017-05-05T00:03:29.869Z,0
2017-05-05T00:04:10.449Z,0
2017-05-05T00:04:51.071Z,0
2017-05-05T00:05:31.685Z,0
2017-05-05T00:06:12.319Z,0
2017-05-05T00:06:52.919Z,0
2017-05-05T00:07:33.534Z,0
2017-05-05T00:08:14.137Z,0
2017-05-05T00:08:54.719Z,0
2017-05-05T00:09:35.321Z,0
2017-05-05T00:10:15.936Z,0
2017-05-05T00:10:56.533Z,0
2017-05-05T00:11:37.143Z,0
2017-05-05T00:12:17.715Z,0
2017-05-05T00:12:58.308Z,0
2017-05-05T00:13:38.860Z,0
2017-05-05T00:14:19.445Z,0
2017-05-05T00:15:00.004Z,0
2017-05-05T00:15:40.612Z,0
2017-05-05T00:16:21.186Z,0
2017-05-05T00:17:01.778Z,0
2017-05-05T00:17:42.373Z,0
2017-05-05T00:18:22.961Z,0
2017-05-05T00:19:03.544Z,0
2017-05-05T00:19:44.172Z,0
2017-05-05T00:20:24.791Z,0
2017-05-05T00:21:05.367Z,0
2017-05-05T00:21:45.959Z,0
2017-05-05T00:22:26.627Z,0
2017-05-05T00:23:07.203Z,0
2017-05-05T00:23:47.787Z,0
2017-05-05T00:24:28.388Z,0
2017-05-05T00:25:08.978Z,0
2017-05-05T00:25:49.577Z,0
2017-05-05T00:26:30.139Z,0
2017-05-05T00:27:10.736Z,0
2017-05-05T00:27:51.300Z,0
2017-05-05T00:28:31.867Z,0
2017-05-05T00:29:12.440Z,0
2017-05-05T00:29:53.001Z,0
2017-05-05T00:30:33.609Z,0
2017-05-05T00:31:14.195Z,0
2017-05-05T00:31:54.770Z,0
2017-05-05T00:32:35.357Z,0
2017-05-05T00:33:16.059Z,0
2017-05-05T00:33:56.713Z,0
2017-05-05T00:34:37.305Z,0
2017-05-05T00:35:17.921Z,0
2017-05-05T00:35:58.528Z,0
2017-05-05T00:36:39.097Z,0
2017-05-05T00:37:19.697Z,0
2017-05-05T00:38:00.286Z,0
2017-05-05T00:38:40.894Z,0
2017-05-05T00:39:21.500Z,0
2017-05-05T00:40:02.127Z,0
2017-05-05T00:40:42.791Z,0
2017-05-05T00:41:23.387Z,0
2017-05-05T00:42:03.999Z,0
2017-05-05T00:42:44.579Z,0
2017-05-05T00:43:25.158Z,0
2017-05-05T00:44:05.751Z,0
2017-05-05T00:44:46.346Z,0
2017-05-05T00:45:26.958Z,0
2017-05-05T00:46:07.532Z,0
2017-05-05T00:46:48.137Z,0
2017-05-05T00:47:28.718Z,0
2017-05-05T00:48:09.313Z,0
2017-05-05T00:48:49.869Z,0
2017-05-05T00:49:30.451Z,0
2017-05-05T00:50:11.023Z,0
2017-05-05T00:50:51.616Z,0
2017-05-05T00:51:35.663Z,0
2017-05-05T00:52:15.465Z,0
2017-05-05T00:52:56.039Z,0
2017-05-05T00:53:36.611Z,0
2017-05-05T00:54:17.210Z,0
2017-05-05T00:54:57.796Z,0
2017-05-05T00:55:38.364Z,0
2017-05-05T00:56:18.960Z,0
2017-05-05T00:56:59.549Z,0
2017-05-05T00:57:40.121Z,0
2017-05-05T00:58:20.707Z,0
2017-05-05T00:59:01.286Z,0
2017-05-05T00:59:41.886Z,0
2017-05-05T01:00:22.486Z,0
2017-05-05T01:01:03.055Z,0
2017-05-05T01:01:43.624Z,0
2017-05-05T01:02:24.211Z,0
2017-05-05T01:03:04.775Z,0
2017-05-05T01:03:45.341Z,0
2017-05-05T01:04:25.917Z,0
2017-05-05T01:05:06.485Z,0
2017-05-05T01:05:47.099Z,0
2017-05-05T01:06:27.690Z,0
2017-05-05T01:07:08.284Z,0
2017-05-05T01:07:48.921Z,0
2017-05-05T01:08:29.514Z,0
2017-05-05T01:09:10.111Z,0
2017-05-05T01:09:50.706Z,0
2017-05-05T01:10:31.273Z,0
2017-05-05T01:11:11.838Z,0
2017-05-05T01:11:52.447Z,0
2017-05-05T01:12:33.021Z,0
2017-05-05T01:13:13.600Z,0
2017-05-05T01:13:54.166Z,0
2017-05-05T01:14:34.750Z,0
2017-05-05T01:15:15.333Z,0
2017-05-05T01:15:55.911Z,0
2017-05-05T01:16:36.531Z,0
2017-05-05T01:17:17.114Z,0
2017-05-05T01:17:57.706Z,0
2017-05-05T01:18:38.309Z,0
2017-05-05T01:19:18.886Z,0
2017-05-05T01:19:59.460Z,0
2017-05-05T01:20:40.049Z,0
2017-05-05T01:21:20.623Z,0
2017-05-05T01:22:01.234Z,0
2017-05-05T01:22:41.782Z,0
2017-05-05T01:23:22.363Z,0
2017-05-05T01:24:02.935Z,0
2017-05-05T01:24:43.517Z,0
2017-05-05T01:25:24.092Z,0
2017-05-05T01:26:04.669Z,0
2017-05-05T01:26:45.232Z,0
2017-05-05T01:27:25.805Z,0
2017-05-05T01:28:06.409Z,0
2017-05-05T01:28:46.979Z,0
2017-05-05T01:29:27.560Z,0
2017-05-05T01:30:08.142Z,0
2017-05-05T01:30:48.731Z,0
2017-05-05T01:31:29.302Z,0
2017-05-05T01:32:09.886Z,0
2017-05-05T01:32:50.467Z,0
2017-05-05T01:33:31.037Z,0
2017-05-05T01:34:11.617Z,0
2017-05-05T01:34:52.187Z,0
2017-05-05T01:35:32.757Z,0
2017-05-05T01:36:13.369Z,0
2017-05-05T01:36:53.957Z,0
2017-05-05T01:37:34.526Z,0
2017-05-05T01:38:15.105Z,0
2017-05-05T01:38:55.700Z,0
2017-05-05T01:39:36.287Z,0
2017-05-05T01:40:16.878Z,0
2017-05-05T01:40:57.455Z,0
2017-05-05T01:41:38.043Z,0
2017-05-05T01:42:18.648Z,0
2017-05-05T01:42:59.232Z,0
2017-05-05T01:43:39.837Z,0
2017-05-05T01:44:20.417Z,0
2017-05-05T01:45:01.001Z,0
2017-05-05T01:45:41.594Z,0
2017-05-05T01:46:22.208Z,0
2017-05-05T01:47:02.803Z,0
2017-05-05T01:47:43.415Z,0
2017-05-05T01:48:23.993Z,0
2017-05-05T01:49:04.579Z,0
2017-05-05T01:49:45.168Z,0
2017-05-05T01:50:25.765Z,0
2017-05-05T01:51:06.370Z,0
2017-05-05T01:51:46.974Z,0
2017-05-05T01:52:27.577Z,0
2017-05-05T01:53:08.175Z,0
2017-05-05T01:53:48.748Z,0
2017-05-05T01:54:29.398Z,0
2017-05-05T01:55:09.969Z,0
2017-05-05T01:55:50.584Z,0
2017-05-05T01:56:31.199Z,0
2017-05-05T01:57:11.784Z,0
2017-05-05T01:57:52.363Z,0
2017-05-05T01:58:33.019Z,0
2017-05-05T01:59:13.607Z,0
2017-05-05T01:59:54.199Z,0
2017-05-05T02:00:34.779Z,0
2017-05-05T02:01:15.407Z,0
2017-05-05T02:01:56.001Z,0
2017-05-05T02:02:36.622Z,0
2017-05-05T02:03:17.196Z,0
2017-05-05T02:03:57.807Z,0
2017-05-05T02:04:38.413Z,0
2017-05-05T02:05:19.017Z,0
2017-05-05T02:05:59.591Z,0
2017-05-05T02:06:40.181Z,0
2017-05-05T02:07:20.755Z,0
2017-05-05T02:08:01.338Z,0
2017-05-05T02:08:41.900Z,0
2017-05-05T02:09:22.481Z,0
2017-05-05T02:10:03.074Z,0
2017-05-05T02:10:43.673Z,0
2017-05-05T02:11:24.313Z,0
2017-05-05T02:12:04.885Z,0
2017-05-05T02:12:45.454Z,0
2017-05-05T02:13:26.026Z,0
2017-05-05T02:14:06.620Z,0
2017-05-05T02:14:47.242Z,0
2017-05-05T02:15:27.830Z,0
2017-05-05T02:16:08.417Z,0
2017-05-05T02:16:49.067Z,0
2017-05-05T02:17:29.670Z,0
2017-05-05T02:18:10.340Z,0
2017-05-05T02:18:51.024Z,0
2017-05-05T02:19:31.598Z,0
2017-05-05T02:20:12.210Z,0
2017-05-05T02:20:52.803Z,0
2017-05-05T02:21:33.416Z,0
2017-05-05T02:22:14.067Z,0
2017-05-05T02:22:54.654Z,0
2017-05-05T02:23:35.239Z,0
2017-05-05T02:24:15.823Z,0
2017-05-05T02:24:56.404Z,0
2017-05-05T02:25:36.972Z,0
2017-05-05T02:26:17.558Z,0
2017-05-05T02:26:58.157Z,0
2017-05-05T02:27:38.771Z,0
2017-05-05T02:28:19.333Z,0
2017-05-05T02:28:59.959Z,0
2017-05-05T02:29:40.543Z,0
2017-05-05T02:30:21.128Z,0
2017-05-05T02:31:01.709Z,0
2017-05-05T02:31:42.282Z,0
2017-05-05T02:32:22.842Z,0
2017-05-05T02:33:03.485Z,0
2017-05-05T02:33:44.070Z,0
2017-05-05T02:34:24.683Z,0
2017-05-05T02:35:05.253Z,0
2017-05-05T02:35:45.891Z,0
2017-05-05T02:36:26.494Z,0
2017-05-05T02:37:07.090Z,0
2017-05-05T02:37:47.736Z,0
2017-05-05T02:38:28.356Z,0
2017-05-05T02:39:08.979Z,0
2017-05-05T02:39:49.593Z,0
2017-05-05T02:40:30.166Z,0
2017-05-05T02:41:10.785Z,0
2017-05-05T02:41:51.367Z,0
2017-05-05T02:42:31.994Z,0
2017-05-05T02:43:12.555Z,0
2017-05-05T02:43:53.129Z,0
2017-05-05T02:44:33.718Z,0
2017-05-05T02:45:14.312Z,0
2017-05-05T02:45:54.953Z,0
2017-05-05T02:46:35.521Z,0
2017-05-05T02:47:16.107Z,0
2017-05-05T02:47:56.681Z,0
2017-05-05T02:48:37.251Z,0
2017-05-05T02:49:17.821Z,0
2017-05-05T02:49:58.418Z,0
2017-05-05T02:50:39.047Z,0
2017-05-05T02:51:19.656Z,0
2017-05-05T02:52:00.252Z,0
2017-05-05T02:52:40.864Z,0
2017-05-05T02:53:21.442Z,0
2017-05-05T02:54:02.046Z,0
2017-05-05T02:54:42.623Z,0
2017-05-05T02:55:23.191Z,0
2017-05-05T02:56:03.770Z,0
2017-05-05T02:56:44.433Z,0
2017-05-05T02:57:25.109Z,0
2017-05-05T02:58:05.701Z,0
2017-05-05T02:58:46.312Z,0
2017-05-05T02:59:26.932Z,0
2017-05-05T03:00:07.602Z,0
2017-05-05T03:00:48.213Z,0
2017-05-05T03:01:28.789Z,0
2017-05-05T03:02:09.376Z,0
2017-05-05T03:02:49.967Z,0
2017-05-05T03:03:30.624Z,0
2017-05-05T03:04:11.188Z,0
2017-05-05T03:04:51.774Z,0
2017-05-05T03:05:32.340Z,0
2017-05-05T03:06:12.944Z,0
2017-05-05T03:06:53.565Z,0
2017-05-05T03:07:34.140Z,0
2017-05-05T03:08:14.763Z,0
2017-05-05T03:08:55.336Z,0
2017-05-05T03:09:35.948Z,0
2017-05-05T03:10:16.555Z,0
2017-05-05T03:10:57.161Z,0
2017-05-05T03:11:37.814Z,0
2017-05-05T03:12:18.400Z,4
2017-05-05T03:12:58.997Z,4
2017-05-05T03:13:39.597Z,4
2017-05-05T03:14:20.179Z,4
2017-05-05T03:15:00.843Z,4
2017-05-05T03:15:41.416Z,0
2017-05-05T03:16:22.051Z,4
2017-05-05T03:17:02.711Z,4
2017-05-05T03:17:43.306Z,4
2017-05-05T03:18:23.929Z,4
2017-05-05T03:19:04.510Z,4
2017-05-05T03:19:45.094Z,4
2017-05-05T03:20:25.701Z,4
2017-05-05T03:21:06.351Z,4
2017-05-05T03:21:46.937Z,4
2017-05-05T03:22:27.509Z,4
2017-05-05T03:23:08.144Z,8
2017-05-05T03:23:48.720Z,8
2017-05-05T03:24:29.298Z,4
2017-05-05T03:25:09.874Z,4
2017-05-05T03:25:50.477Z,8
2017-05-05T03:26:31.051Z,4
2017-05-05T03:27:11.628Z,4
2017-05-05T03:27:52.229Z,8
2017-05-05T03:28:32.841Z,8
2017-05-05T03:29:13.495Z,12
2017-05-05T03:29:54.071Z,8
2017-05-05T03:30:34.638Z,8
2017-05-05T03:31:15.317Z,12
2017-05-05T03:31:55.978Z,12
2017-05-05T03:32:36.558Z,12
2017-05-05T03:33:17.134Z,12
2017-05-05T03:33:57.698Z,12
2017-05-05T03:34:38.325Z,16
2017-05-05T03:35:18.896Z,12
2017-05-05T03:35:59.502Z,16
2017-05-05T03:36:40.116Z,16
2017-05-05T03:37:20.789Z,16
2017-05-05T03:38:01.376Z,16
2017-05-05T03:38:41.979Z,20
2017-05-05T03:39:22.575Z,20
2017-05-05T03:40:03.157Z,20
2017-05-05T03:40:43.775Z,20
2017-05-05T03:41:24.405Z,20
2017-05-05T03:42:04.988Z,16
2017-05-05T03:42:45.578Z,20
2017-05-05T03:43:26.184Z,20
2017-05-05T03:44:06.766Z,16
2017-05-05T03:44:47.370Z,16
2017-05-05T03:45:27.967Z,20
2017-05-05T03:46:08.560Z,20
2017-05-05T03:46:49.142Z,24
2017-05-05T03:47:29.721Z,24
2017-05-05T03:48:10.290Z,24
2017-05-05T03:48:50.850Z,24
2017-05-05T03:49:31.457Z,28
2017-05-05T03:50:12.104Z,24
2017-05-05T03:50:52.704Z,28
2017-05-05T03:51:33.270Z,28
2017-05-05T03:52:13.850Z,28
2017-05-05T03:52:54.464Z,32
2017-05-05T03:53:35.030Z,32
2017-05-05T03:54:15.624Z,32
2017-05-05T03:54:56.241Z,36
2017-05-05T03:55:36.845Z,36
2017-05-05T03:56:17.435Z,40
2017-05-05T03:56:58.031Z,48
2017-05-05T03:57:38.619Z,52
2017-05-05T03:58:19.242Z,52
2017-05-05T03:58:59.817Z,60
2017-05-05T03:59:40.398Z,68
2017-05-05T04:00:20.975Z,64
2017-05-05T04:01:01.576Z,72
2017-05-05T04:01:42.194Z,80
2017-05-05T04:02:22.768Z,84
2017-05-05T04:03:03.372Z,88
2017-05-05T04:03:43.952Z,92
2017-05-05T04:04:24.541Z,92
2017-05-05T04:05:05.140Z,104
2017-05-05T04:05:45.810Z,112
2017-05-05T04:06:26.401Z,116
2017-05-05T04:07:06.998Z,120
2017-05-05T04:07:47.613Z,112
2017-05-05T04:08:28.177Z,112
2017-05-05T04:09:08.766Z,112
2017-05-05T04:09:49.396Z,112
2017-05-05T04:10:29.976Z,112
2017-05-05T04:11:10.570Z,112
2017-05-05T04:11:51.137Z,104
2017-05-05T04:12:31.722Z,100
2017-05-05T04:13:12.365Z,112
2017-05-05T04:13:53.019Z,108
2017-05-05T04:14:33.617Z,100
2017-05-05T04:15:14.355Z,96
2017-05-05T04:15:54.971Z,96
2017-05-05T04:16:35.694Z,92
2017-05-05T04:17:16.284Z,88
2017-05-05T04:17:56.893Z,92
2017-05-05T04:18:37.463Z,92
2017-05-05T04:19:18.050Z,92
2017-05-05T04:19:58.650Z,96
2017-05-05T04:20:39.223Z,96
2017-05-05T04:21:19.807Z,96
2017-05-05T04:22:00.369Z,92
2017-05-05T04:22:40.935Z,96
2017-05-05T04:23:21.517Z,100
2017-05-05T04:24:02.115Z,100
2017-05-05T04:24:42.710Z,96
2017-05-05T04:25:23.307Z,96
2017-05-05T04:26:03.872Z,88
2017-05-05T04:26:44.468Z,88
2017-05-05T04:27:25.041Z,88
2017-05-05T04:28:05.628Z,92
2017-05-05T04:28:46.202Z,88
2017-05-05T04:29:26.787Z,88
2017-05-05T04:30:07.407Z,84
2017-05-05T04:30:47.992Z,84
2017-05-05T04:31:28.566Z,88
2017-05-05T04:32:09.157Z,88
2017-05-05T04:32:49.764Z,92
2017-05-05T04:33:30.359Z,100
2017-05-05T04:34:10.953Z,104
2017-05-05T04:34:51.597Z,116
2017-05-05T04:35:32.190Z,116
2017-05-05T04:36:12.753Z,116
2017-05-05T04:36:53.349Z,120
2017-05-05T04:37:33.942Z,128
2017-05-05T04:38:14.511Z,128
2017-05-05T04:38:55.122Z,120
2017-05-05T04:39:35.684Z,116
2017-05-05T04:40:16.257Z,120
2017-05-05T04:40:56.890Z,120
2017-05-05T04:41:37.480Z,124
2017-05-05T04:42:18.069Z,136
2017-05-05T04:42:58.715Z,136
2017-05-05T04:43:39.336Z,140
2017-05-05T04:44:19.916Z,152
2017-05-05T04:45:00.501Z,156
2017-05-05T04:45:41.081Z,164
2017-05-05T04:46:21.676Z,168
2017-05-05T04:47:02.275Z,168
2017-05-05T04:47:42.874Z,168
2017-05-05T04:48:23.448Z,172
2017-05-05T04:49:04.017Z,176
2017-05-05T04:49:44.595Z,180
2017-05-05T04:50:25.179Z,184
2017-05-05T04:51:05.767Z,188
2017-05-05T04:51:46.350Z,208
2017-05-05T04:52:26.937Z,216
2017-05-05T04:53:07.528Z,232
2017-05-05T04:53:48.108Z,252
2017-05-05T04:54:28.697Z,272
2017-05-05T04:55:09.291Z,280
2017-05-05T04:55:49.898Z,276
2017-05-05T04:56:30.516Z,272
2017-05-05T04:57:11.089Z,276
2017-05-05T04:57:51.675Z,284
2017-05-05T04:58:32.255Z,296
2017-05-05T04:59:12.831Z,320
2017-05-05T04:59:53.420Z,356
2017-05-05T05:00:34.087Z,372
2017-05-05T05:01:14.663Z,352
2017-05-05T05:01:55.287Z,356
2017-05-05T05:02:35.933Z,388
2017-05-05T05:03:16.500Z,420
2017-05-05T05:03:57.067Z,420
2017-05-05T05:04:37.645Z,456
2017-05-05T05:05:18.269Z,476
2017-05-05T05:05:58.848Z,480
2017-05-05T05:06:39.442Z,476
2017-05-05T05:07:20.035Z,468
2017-05-05T05:08:00.601Z,440
2017-05-05T05:08:41.355Z,416
2017-05-05T05:09:21.972Z,388
2017-05-05T05:10:02.605Z,364
2017-05-05T05:10:43.185Z,384
2017-05-05T05:11:23.772Z,380
2017-05-05T05:12:04.501Z,396
2017-05-05T05:12:45.137Z,416
2017-05-05T05:13:25.726Z,428
2017-05-05T05:14:06.304Z,460
2017-05-05T05:14:46.885Z,516
2017-05-05T05:15:27.490Z,596
2017-05-05T05:16:08.059Z,612
2017-05-05T05:16:48.638Z,616
2017-05-05T05:17:29.237Z,612
2017-05-05T05:18:09.826Z,576
2017-05-05T05:18:50.438Z,544
2017-05-05T05:19:31.044Z,520
2017-05-05T05:20:11.677Z,516
2017-05-05T05:20:52.264Z,520
2017-05-05T05:21:32.835Z,496
2017-05-05T05:22:13.454Z,456
2017-05-05T05:22:54.035Z,444
2017-05-05T05:23:34.613Z,456
2017-05-05T05:24:15.192Z,476
2017-05-05T05:24:55.800Z,460
2017-05-05T05:25:36.410Z,448
2017-05-05T05:26:17.027Z,452
2017-05-05T05:26:57.609Z,480
2017-05-05T05:27:38.216Z,464
2017-05-05T05:28:18.798Z,456
2017-05-05T05:28:59.381Z,464
2017-05-05T05:29:39.988Z,464
2017-05-05T05:30:20.590Z,444
2017-05-05T05:31:01.196Z,424
2017-05-05T05:31:41.811Z,388
2017-05-05T05:32:22.491Z,348
2017-05-05T05:33:03.189Z,328
2017-05-05T05:33:43.796Z,316
2017-05-05T05:34:24.384Z,308
2017-05-05T05:35:04.979Z,300
2017-05-05T05:35:45.567Z,300
2017-05-05T05:36:26.175Z,300
2017-05-05T05:37:06.803Z,312
2017-05-05T05:37:47.385Z,344
2017-05-05T05:38:28.006Z,372
2017-05-05T05:39:08.696Z,424
2017-05-05T05:39:49.372Z,448
2017-05-05T05:40:29.958Z,448
2017-05-05T05:41:10.557Z,472
2017-05-05T05:41:51.159Z,500
2017-05-05T05:42:31.789Z,500
2017-05-05T05:43:12.485Z,516
2017-05-05T05:43:53.068Z,504
2017-05-05T05:44:33.679Z,484
2017-05-05T05:45:14.264Z,476
2017-05-05T05:45:54.847Z,472
2017-05-05T05:46:35.426Z,456
2017-05-05T05:47:16.188Z,432
2017-05-05T05:47:56.814Z,436
2017-05-05T05:48:37.515Z,456
2017-05-05T05:49:18.103Z,472
2017-05-05T05:49:58.694Z,468
2017-05-05T05:50:39.326Z,472
2017-05-05T05:51:19.901Z,504
2017-05-05T05:52:00.538Z,584
2017-05-05T05:52:41.171Z,652
2017-05-05T05:53:21.823Z,696
2017-05-05T05:54:02.337Z,772
2017-05-05T05:54:42.966Z,812
2017-05-05T05:55:23.555Z,860
2017-05-05T05:56:04.214Z,884
2017-05-05T05:56:44.820Z,900
2017-05-05T05:57:25.496Z,936
2017-05-05T05:58:06.098Z,988
2017-05-05T05:58:46.711Z,1016
2017-05-05T05:59:27.309Z,1020
2017-05-05T06:00:07.926Z,1024
2017-05-05T06:00:48.529Z,1072
2017-05-05T06:01:29.096Z,1208
2017-05-05T06:02:09.700Z,1312
2017-05-05T06:02:50.314Z,1352
2017-05-05T06:03:30.977Z,1364
2017-05-05T06:04:11.608Z,1400
2017-05-05T06:04:52.197Z,1412
2017-05-05T06:05:32.797Z,1384
2017-05-05T06:06:13.419Z,1332
2017-05-05T06:06:54.001Z,1308
2017-05-05T06:07:34.651Z,1304
2017-05-05T06:08:15.302Z,1300
2017-05-05T06:08:55.877Z,1284
2017-05-05T06:09:36.523Z,1272
2017-05-05T06:10:17.176Z,1328
2017-05-05T06:10:57.840Z,1384
2017-05-05T06:11:38.468Z,1424
2017-05-05T06:12:19.037Z,1404
2017-05-05T06:12:59.623Z,1360
2017-05-05T06:13:40.213Z,1312
2017-05-05T06:14:20.812Z,1288
2017-05-05T06:15:01.435Z,1268
2017-05-05T06:15:42.040Z,1264
2017-05-05T06:16:22.647Z,1288
2017-05-05T06:17:03.329Z,1292
2017-05-05T06:17:44.011Z,1256
2017-05-05T06:18:24.639Z,1280
2017-05-05T06:19:05.221Z,1332
2017-05-05T06:19:45.848Z,1304
2017-05-05T06:20:26.451Z,1252
2017-05-05T06:21:07.051Z,1168
2017-05-05T06:21:47.615Z,1100
2017-05-05T06:22:28.261Z,1036
2017-05-05T06:23:08.846Z,1000
2017-05-05T06:23:49.479Z,1012
2017-05-05T06:24:30.159Z,1068
2017-05-05T06:25:10.741Z,1116
2017-05-05T06:25:51.336Z,1156
2017-05-05T06:26:31.951Z,1164
2017-05-05T06:27:12.538Z,1172
2017-05-05T06:27:53.156Z,1156
2017-05-05T06:28:33.746Z,1136
2017-05-05T06:29:14.337Z,1148
2017-05-05T06:29:54.925Z,1168
2017-05-05T06:30:35.504Z,1180
2017-05-05T06:31:16.095Z,1184
2017-05-05T06:31:56.693Z,1200
2017-05-05T06:32:37.368Z,1236
2017-05-05T06:33:17.975Z,1260
2017-05-05T06:33:58.548Z,1252
2017-05-05T06:34:39.132Z,1236
2017-05-05T06:35:19.695Z,1244
2017-05-05T06:36:00.279Z,1264
2017-05-05T06:36:40.894Z,1252
2017-05-05T06:37:21.485Z,1260
2017-05-05T06:38:02.175Z,1312
2017-05-05T06:38:42.781Z,1320
2017-05-05T06:39:23.368Z,1300
2017-05-05T06:40:03.927Z,1252
2017-05-05T06:40:44.513Z,1200
2017-05-05T06:41:25.111Z,1156
2017-05-05T06:42:05.681Z,1132
2017-05-05T06:42:46.316Z,1120
2017-05-05T06:43:26.887Z,1104
2017-05-05T06:44:07.491Z,1080
2017-05-05T06:44:48.068Z,1044
2017-05-05T06:45:28.666Z,1036
2017-05-05T06:46:09.253Z,1020
2017-05-05T06:46:49.892Z,1020
2017-05-05T06:47:30.516Z,1028
2017-05-05T06:48:11.110Z,1048
2017-05-05T06:48:51.744Z,1080
2017-05-05T06:49:32.327Z,1128
2017-05-05T06:50:12.945Z,1160
2017-05-05T06:50:53.539Z,1176
2017-05-05T06:51:34.170Z,1184
2017-05-05T06:52:14.767Z,1176
2017-05-05T06:52:55.357Z,1152
2017-05-05T06:53:35.953Z,1144
2017-05-05T06:54:16.582Z,1136
2017-05-05T06:54:57.213Z,1128
2017-05-05T06:55:37.814Z,1104
2017-05-05T06:56:18.426Z,1080
2017-05-05T06:56:59.071Z,1076
2017-05-05T06:57:39.706Z,1100
2017-05-05T06:58:20.292Z,1132
2017-05-05T06:59:00.911Z,1172
2017-05-05T06:59:41.545Z,1192
2017-05-05T07:00:22.109Z,1232
2017-05-05T07:01:02.702Z,1256
2017-05-05T07:01:43.313Z,1276
2017-05-05T07:02:23.896Z,1308
2017-05-05T07:03:04.518Z,1344
2017-05-05T07:03:45.139Z,1392
2017-05-05T07:04:25.709Z,1424
2017-05-05T07:05:06.290Z,1432
2017-05-05T07:05:46.900Z,1436
2017-05-05T07:06:27.467Z,1464
2017-05-05T07:07:08.061Z,1484
2017-05-05T07:07:48.721Z,1528
2017-05-05T07:08:29.310Z,1604
2017-05-05T07:09:09.905Z,1628
2017-05-05T07:09:50.645Z,1616
2017-05-05T07:10:31.307Z,1572
2017-05-05T07:11:11.879Z,1536
2017-05-05T07:11:52.478Z,1508
2017-05-05T07:12:33.142Z,1504
2017-05-05T07:13:13.753Z,1500
2017-05-05T07:13:54.343Z,1480
2017-05-05T07:14:34.920Z,1480
2017-05-05T07:15:15.494Z,1472
2017-05-05T07:15:56.096Z,1456
2017-05-05T07:16:36.749Z,1444
2017-05-05T07:17:17.369Z,1432
2017-05-05T07:17:58.009Z,1412
2017-05-05T07:18:38.604Z,1388
2017-05-05T07:19:19.234Z,1340
2017-05-05T07:19:59.808Z,1312
2017-05-05T07:20:40.416Z,1272
2017-05-05T07:21:21.007Z,1240
2017-05-05T07:22:01.657Z,1220
2017-05-05T07:22:42.257Z,1208
2017-05-05T07:23:22.869Z,1220
2017-05-05T07:24:03.467Z,1240
2017-05-05T07:24:44.052Z,1256
2017-05-05T07:25:24.622Z,1288
2017-05-05T07:26:05.196Z,1340
2017-05-05T07:26:45.791Z,1388
2017-05-05T07:27:26.430Z,1444
2017-05-05T07:28:07.061Z,1500
2017-05-05T07:28:47.651Z,1560
2017-05-05T07:29:28.228Z,1604
2017-05-05T07:30:08.818Z,1592
2017-05-05T07:30:49.395Z,1552
2017-05-05T07:31:29.981Z,1512
2017-05-05T07:32:10.571Z,1504
2017-05-05T07:32:51.156Z,1516
2017-05-05T07:33:31.738Z,1512
2017-05-05T07:34:12.332Z,1476
2017-05-05T07:34:52.908Z,1416
2017-05-05T07:35:33.510Z,1352
2017-05-05T07:36:14.100Z,1308
2017-05-05T07:36:54.693Z,1300
2017-05-05T07:37:35.303Z,1308
2017-05-05T07:38:15.891Z,1308
2017-05-05T07:38:56.513Z,1316
2017-05-05T07:39:37.086Z,1328
2017-05-05T07:40:17.655Z,1336
2017-05-05T07:40:58.253Z,1332
2017-05-05T07:41:38.817Z,1324
2017-05-05T07:42:19.390Z,1308
2017-05-05T07:42:59.970Z,1304
2017-05-05T07:43:40.568Z,1304
2017-05-05T07:44:21.146Z,1312
2017-05-05T07:45:01.804Z,1320
2017-05-05T07:45:42.407Z,1340
2017-05-05T07:46:23.000Z,1360
2017-05-05T07:47:03.625Z,1380
2017-05-05T07:47:44.198Z,1384
2017-05-05T07:48:24.801Z,1376
2017-05-05T07:49:05.401Z,1376
2017-05-05T07:49:46.059Z,1376
2017-05-05T07:50:26.618Z,1388
2017-05-05T07:51:07.227Z,1404
2017-05-05T07:51:47.820Z,1412
2017-05-05T07:52:28.443Z,1416
2017-05-05T07:53:09.071Z,1404
2017-05-05T07:53:49.630Z,1384
2017-05-05T07:54:30.210Z,1348
2017-05-05T07:55:10.780Z,1324
2017-05-05T07:55:51.394Z,1328
2017-05-05T07:56:31.967Z,1364
2017-05-05T07:57:12.566Z,1384
2017-05-05T07:57:53.625Z,1400
2017-05-05T07:58:34.235Z,1428
2017-05-05T07:59:14.813Z,1492
2017-05-05T07:59:55.400Z,1584
2017-05-05T08:00:35.990Z,1684
2017-05-05T08:01:16.566Z,1780
2017-05-05T08:01:57.277Z,1868
2017-05-05T08:02:37.862Z,1940
2017-05-05T08:03:18.501Z,1968
2017-05-05T08:03:59.060Z,1912
2017-05-05T08:04:39.666Z,1800
2017-05-05T08:05:20.256Z,1652
2017-05-05T08:06:00.829Z,1508
2017-05-05T08:06:41.405Z,1376
2017-05-05T08:07:21.999Z,1284
2017-05-05T08:08:02.575Z,1216
2017-05-05T08:08:43.203Z,1172
2017-05-05T08:09:23.811Z,1164
2017-05-05T08:10:04.400Z,1184
2017-05-05T08:10:44.974Z,1220
2017-05-05T08:11:25.545Z,1268
2017-05-05T08:12:06.150Z,1312
2017-05-05T08:12:46.745Z,1344
2017-05-05T08:13:27.359Z,1388
2017-05-05T08:14:07.960Z,1420
2017-05-05T08:14:48.540Z,1452
2017-05-05T08:15:29.136Z,1488
2017-05-05T08:16:09.713Z,1524
2017-05-05T08:16:51.941Z,1572
2017-05-05T08:17:32.577Z,1608
2017-05-05T08:18:13.196Z,1640
2017-05-05T08:18:53.757Z,1680
2017-05-05T08:19:34.347Z,1720
2017-05-05T08:20:14.987Z,1748
2017-05-05T08:20:55.578Z,1776
2017-05-05T08:21:36.153Z,1812
2017-05-05T08:22:16.838Z,1844
2017-05-05T08:22:57.437Z,1864
2017-05-05T08:23:37.999Z,1876
2017-05-05T08:24:18.589Z,1856
2017-05-05T08:24:59.186Z,1800
2017-05-05T08:25:39.796Z,1744
2017-05-05T08:26:20.381Z,1676
2017-05-05T08:27:00.974Z,1592
2017-05-05T08:27:41.631Z,1528
2017-05-05T08:28:22.279Z,1476
2017-05-05T08:29:02.895Z,1436
2017-05-05T08:29:43.492Z,1404
2017-05-05T08:30:24.064Z,1380
2017-05-05T08:31:04.645Z,1368
2017-05-05T08:31:45.231Z,1376
2017-05-05T08:32:25.858Z,1392
2017-05-05T08:33:07.909Z,1416
2017-05-05T08:33:47.062Z,1448
2017-05-05T08:34:27.661Z,1488
2017-05-05T08:35:08.321Z,1532
2017-05-05T08:35:48.897Z,1576
2017-05-05T08:36:29.469Z,1656
2017-05-05T08:37:10.046Z,1768
2017-05-05T08:37:50.661Z,1876
2017-05-05T08:38:31.262Z,1972
2017-05-05T08:39:11.845Z,2076
2017-05-05T08:39:52.435Z,2140
2017-05-05T08:40:33.025Z,2176
2017-05-05T08:41:13.603Z,2216
2017-05-05T08:41:54.246Z,2244
2017-05-05T08:42:34.795Z,2268
2017-05-05T08:43:15.398Z,2296
2017-05-05T08:43:55.975Z,2292
2017-05-05T08:44:36.557Z,2248
2017-05-05T08:45:17.133Z,2200
2017-05-05T08:45:57.855Z,2148
2017-05-05T08:46:38.631Z,2092
2017-05-05T08:47:19.216Z,2060
2017-05-05T08:47:59.791Z,2036
2017-05-05T08:48:40.388Z,2016
2017-05-05T08:49:20.948Z,2008
2017-05-05T08:50:01.522Z,2028
2017-05-05T08:50:42.142Z,2068
2017-05-05T08:51:22.733Z,2088
2017-05-05T08:52:03.341Z,2108
2017-05-05T08:52:43.932Z,2116
2017-05-05T08:53:24.520Z,2124
2017-05-05T08:54:05.103Z,2104
2017-05-05T08:54:45.692Z,2048
2017-05-05T08:55:26.278Z,1984
2017-05-05T08:56:06.870Z,1908
2017-05-05T08:56:47.449Z,1844
2017-05-05T08:57:28.040Z,1792
2017-05-05T08:58:08.651Z,1748
2017-05-05T08:58:49.214Z,1728
2017-05-05T08:59:29.812Z,1716
2017-05-05T09:00:10.411Z,1724
2017-05-05T09:00:51.002Z,1756
2017-05-05T09:01:31.586Z,1760
2017-05-05T09:02:12.159Z,1756
2017-05-05T09:02:52.743Z,1736
2017-05-05T09:03:33.432Z,1716
2017-05-05T09:04:14.023Z,1700
2017-05-05T09:04:54.574Z,1692
2017-05-05T09:05:35.151Z,1684
2017-05-05T09:06:15.740Z,1680
2017-05-05T09:06:56.336Z,1680
2017-05-05T09:07:36.921Z,1680
2017-05-05T09:08:17.541Z,1684
2017-05-05T09:08:58.125Z,1700
2017-05-05T09:09:38.718Z,1704
2017-05-05T09:10:19.280Z,1708
2017-05-05T09:10:59.861Z,1696
2017-05-05T09:11:40.433Z,1672
2017-05-05T09:12:21.010Z,1652
2017-05-05T09:13:01.584Z,1640
2017-05-05T09:13:42.190Z,1644
2017-05-05T09:14:22.771Z,1668
2017-05-05T09:15:03.365Z,1716
2017-05-05T09:15:43.953Z,1768
2017-05-05T09:16:24.570Z,1824
2017-05-05T09:17:05.159Z,1868
2017-05-05T09:17:45.754Z,1884
2017-05-05T09:18:26.363Z,1872
2017-05-05T09:19:06.976Z,1848
2017-05-05T09:19:47.547Z,1836
2017-05-05T09:20:28.135Z,1836
2017-05-05T09:21:08.749Z,1848
2017-05-05T09:21:49.330Z,1860
2017-05-05T09:22:29.919Z,1884
2017-05-05T09:23:10.532Z,1916
2017-05-05T09:23:51.121Z,1960
2017-05-05T09:24:31.727Z,2000
2017-05-05T09:25:12.303Z,2036
2017-05-05T09:25:52.908Z,2048
2017-05-05T09:26:33.472Z,2052
2017-05-05T09:27:14.036Z,2056
2017-05-05T09:27:54.601Z,2056